sensor_id;sensor_type;location;lat;lon;timestamp;temperature;humidity
73252;DHT22;61473;50.834;4.552;2022-07-06T00:01:29;23.60;47.10
73252;DHT22;61473;50.834;4.552;2022-07-06T00:03:55;23.60;47.10
73252;DHT22;61473;50.834;4.552;2022-07-06T00:06:21;23.60;47.10
73252;DHT22;61473;50.834;4.552;2022-07-06T00:08:47;23.60;47.10
73252;DHT22;61473;50.834;4.552;2022-07-06T00:11:12;23.60;47.10
73252;DHT22;61473;50.834;4.552;2022-07-06T00:13:38;23.60;47.10
73252;DHT22;61473;50.834;4.552;2022-07-06T00:16:04;23.60;47.20
73252;DHT22;61473;50.834;4.552;2022-07-06T00:18:30;23.60;47.30
73252;DHT22;61473;50.834;4.552;2022-07-06T00:20:56;23.60;47.20
73252;DHT22;61473;50.834;4.552;2022-07-06T00:23:22;23.50;47.70
73252;DHT22;61473;50.834;4.552;2022-07-06T00:25:48;23.60;47.20
73252;DHT22;61473;50.834;4.552;2022-07-06T00:28:14;23.50;47.10
73252;DHT22;61473;50.834;4.552;2022-07-06T00:30:40;23.50;47.10
73252;DHT22;61473;50.834;4.552;2022-07-06T00:33:06;23.50;47.10
73252;DHT22;61473;50.834;4.552;2022-07-06T00:35:32;23.50;47.10
73252;DHT22;61473;50.834;4.552;2022-07-06T00:37:58;23.50;47.10
73252;DHT22;61473;50.834;4.552;2022-07-06T00:40:24;23.50;47.10
73252;DHT22;61473;50.834;4.552;2022-07-06T00:42:49;23.50;47.10
73252;DHT22;61473;50.834;4.552;2022-07-06T00:45:17;23.50;47.00
73252;DHT22;61473;50.834;4.552;2022-07-06T00:47:44;23.50;47.00
73252;DHT22;61473;50.834;4.552;2022-07-06T00:50:12;23.40;47.10
73252;DHT22;61473;50.834;4.552;2022-07-06T00:53:10;23.40;47.00
73252;DHT22;61473;50.834;4.552;2022-07-06T00:55:37;23.40;47.00
73252;DHT22;61473;50.834;4.552;2022-07-06T00:58:07;23.40;47.00
73252;DHT22;61473;50.834;4.552;2022-07-06T01:00:33;23.40;47.00
73252;DHT22;61473;50.834;4.552;2022-07-06T01:02:59;23.40;47.10
73252;DHT22;61473;50.834;4.552;2022-07-06T01:05:25;23.40;47.10
73252;DHT22;61473;50.834;4.552;2022-07-06T01:07:52;23.40;47.10
73252;DHT22;61473;50.834;4.552;2022-07-06T01:10:20;23.40;47.10
73252;DHT22;61473;50.834;4.552;2022-07-06T01:12:47;23.40;47.10
73252;DHT22;61473;50.834;4.552;2022-07-06T01:15:18;23.40;47.80
73252;DHT22;61473;50.834;4.552;2022-07-06T01:17:44;23.40;47.00
73252;DHT22;61473;50.834;4.552;2022-07-06T01:20:14;23.30;47.00
73252;DHT22;61473;50.834;4.552;2022-07-06T01:22:40;23.30;47.00
73252;DHT22;61473;50.834;4.552;2022-07-06T01:25:07;23.30;47.00
73252;DHT22;61473;50.834;4.552;2022-07-06T01:27:38;23.30;47.00
73252;DHT22;61473;50.834;4.552;2022-07-06T01:30:12;23.30;47.00
73252;DHT22;61473;50.834;4.552;2022-07-06T01:32:38;23.30;47.00
73252;DHT22;61473;50.834;4.552;2022-07-06T01:35:06;23.30;46.90
73252;DHT22;61473;50.834;4.552;2022-07-06T01:37:32;23.30;47.00
73252;DHT22;61473;50.834;4.552;2022-07-06T01:39:59;23.30;47.00
73252;DHT22;61473;50.834;4.552;2022-07-06T01:42:26;23.30;47.10
73252;DHT22;61473;50.834;4.552;2022-07-06T01:44:52;23.20;46.90
73252;DHT22;61473;50.834;4.552;2022-07-06T01:47:18;23.30;47.00
73252;DHT22;61473;50.834;4.552;2022-07-06T01:49:43;23.30;47.00
73252;DHT22;61473;50.834;4.552;2022-07-06T01:52:09;23.20;47.00
73252;DHT22;61473;50.834;4.552;2022-07-06T01:54:35;23.20;46.90
73252;DHT22;61473;50.834;4.552;2022-07-06T01:57:00;23.20;46.90
73252;DHT22;61473;50.834;4.552;2022-07-06T01:59:26;23.20;46.90
73252;DHT22;61473;50.834;4.552;2022-07-06T02:01:52;23.20;46.90
73252;DHT22;61473;50.834;4.552;2022-07-06T02:04:17;23.10;46.90
73252;DHT22;61473;50.834;4.552;2022-07-06T02:06:43;23.10;46.90
73252;DHT22;61473;50.834;4.552;2022-07-06T02:09:09;23.10;46.90
73252;DHT22;61473;50.834;4.552;2022-07-06T02:11:35;23.10;47.00
73252;DHT22;61473;50.834;4.552;2022-07-06T02:14:00;23.10;46.90
73252;DHT22;61473;50.834;4.552;2022-07-06T02:16:26;23.10;46.90
73252;DHT22;61473;50.834;4.552;2022-07-06T02:18:52;23.10;47.00
73252;DHT22;61473;50.834;4.552;2022-07-06T02:21:17;23.10;47.00
73252;DHT22;61473;50.834;4.552;2022-07-06T02:23:43;23.10;46.90
73252;DHT22;61473;50.834;4.552;2022-07-06T02:26:09;23.10;46.90
73252;DHT22;61473;50.834;4.552;2022-07-06T02:28:35;23.10;46.90
73252;DHT22;61473;50.834;4.552;2022-07-06T02:31:01;23.10;46.90
73252;DHT22;61473;50.834;4.552;2022-07-06T02:33:27;23.10;46.90
73252;DHT22;61473;50.834;4.552;2022-07-06T02:35:53;23.10;46.90
73252;DHT22;61473;50.834;4.552;2022-07-06T02:38:18;23.10;46.90
73252;DHT22;61473;50.834;4.552;2022-07-06T02:40:44;23.10;46.90
73252;DHT22;61473;50.834;4.552;2022-07-06T02:43:10;23.00;46.80
73252;DHT22;61473;50.834;4.552;2022-07-06T02:45:36;23.10;46.80
73252;DHT22;61473;50.834;4.552;2022-07-06T02:48:02;23.10;46.70
73252;DHT22;61473;50.834;4.552;2022-07-06T02:50:28;23.00;46.80
73252;DHT22;61473;50.834;4.552;2022-07-06T02:52:54;23.00;46.90
73252;DHT22;61473;50.834;4.552;2022-07-06T02:55:20;23.00;46.80
73252;DHT22;61473;50.834;4.552;2022-07-06T02:57:46;23.00;46.80
73252;DHT22;61473;50.834;4.552;2022-07-06T03:00:12;23.00;46.90
73252;DHT22;61473;50.834;4.552;2022-07-06T03:02:38;23.00;46.80
73252;DHT22;61473;50.834;4.552;2022-07-06T03:05:04;22.90;46.80
73252;DHT22;61473;50.834;4.552;2022-07-06T03:07:30;22.90;46.80
73252;DHT22;61473;50.834;4.552;2022-07-06T03:09:56;22.90;46.80
73252;DHT22;61473;50.834;4.552;2022-07-06T03:12:22;22.90;46.70
73252;DHT22;61473;50.834;4.552;2022-07-06T03:14:47;22.90;46.80
73252;DHT22;61473;50.834;4.552;2022-07-06T03:17:13;22.90;46.70
73252;DHT22;61473;50.834;4.552;2022-07-06T03:19:39;22.90;46.80
73252;DHT22;61473;50.834;4.552;2022-07-06T03:22:04;22.90;46.80
73252;DHT22;61473;50.834;4.552;2022-07-06T03:24:30;22.90;46.70
73252;DHT22;61473;50.834;4.552;2022-07-06T03:26:56;22.90;46.70
73252;DHT22;61473;50.834;4.552;2022-07-06T03:29:22;22.90;46.70
73252;DHT22;61473;50.834;4.552;2022-07-06T03:31:47;22.90;46.70
73252;DHT22;61473;50.834;4.552;2022-07-06T03:34:13;22.90;46.80
73252;DHT22;61473;50.834;4.552;2022-07-06T03:36:39;22.90;46.70
73252;DHT22;61473;50.834;4.552;2022-07-06T03:39:06;22.90;46.70
73252;DHT22;61473;50.834;4.552;2022-07-06T03:41:32;22.90;46.70
73252;DHT22;61473;50.834;4.552;2022-07-06T03:43:58;22.80;46.70
73252;DHT22;61473;50.834;4.552;2022-07-06T03:46:24;22.80;46.70
73252;DHT22;61473;50.834;4.552;2022-07-06T03:48:49;22.80;46.70
73252;DHT22;61473;50.834;4.552;2022-07-06T03:51:15;22.80;46.70
73252;DHT22;61473;50.834;4.552;2022-07-06T03:53:41;22.80;46.70
73252;DHT22;61473;50.834;4.552;2022-07-06T03:56:07;22.80;46.70
73252;DHT22;61473;50.834;4.552;2022-07-06T03:58:51;22.80;46.80
73252;DHT22;61473;50.834;4.552;2022-07-06T04:01:17;22.80;46.80
73252;DHT22;61473;50.834;4.552;2022-07-06T04:03:42;22.80;47.00
73252;DHT22;61473;50.834;4.552;2022-07-06T04:06:08;22.80;47.00
73252;DHT22;61473;50.834;4.552;2022-07-06T04:08:34;22.80;47.10
73252;DHT22;61473;50.834;4.552;2022-07-06T04:10:59;22.80;47.10
73252;DHT22;61473;50.834;4.552;2022-07-06T04:13:25;22.80;47.20
73252;DHT22;61473;50.834;4.552;2022-07-06T04:15:51;22.80;47.20
73252;DHT22;61473;50.834;4.552;2022-07-06T04:18:17;22.80;47.30
73252;DHT22;61473;50.834;4.552;2022-07-06T04:20:43;22.80;47.50
73252;DHT22;61473;50.834;4.552;2022-07-06T04:23:08;22.80;47.50
73252;DHT22;61473;50.834;4.552;2022-07-06T04:25:34;22.80;47.60
73252;DHT22;61473;50.834;4.552;2022-07-06T04:28:00;22.80;47.60
73252;DHT22;61473;50.834;4.552;2022-07-06T04:30:26;22.80;47.60
73252;DHT22;61473;50.834;4.552;2022-07-06T04:32:52;22.80;47.70
73252;DHT22;61473;50.834;4.552;2022-07-06T04:35:18;22.80;47.70
73252;DHT22;61473;50.834;4.552;2022-07-06T04:37:43;22.80;47.70
73252;DHT22;61473;50.834;4.552;2022-07-06T04:40:11;22.80;47.70
73252;DHT22;61473;50.834;4.552;2022-07-06T04:42:37;22.80;47.70
73252;DHT22;61473;50.834;4.552;2022-07-06T04:45:04;22.80;47.80
73252;DHT22;61473;50.834;4.552;2022-07-06T04:47:30;22.80;47.90
73252;DHT22;61473;50.834;4.552;2022-07-06T04:49:56;22.80;48.00
73252;DHT22;61473;50.834;4.552;2022-07-06T04:52:21;22.80;48.10
73252;DHT22;61473;50.834;4.552;2022-07-06T04:54:47;22.80;48.10
73252;DHT22;61473;50.834;4.552;2022-07-06T04:57:13;22.80;48.20
73252;DHT22;61473;50.834;4.552;2022-07-06T04:59:38;22.80;48.20
73252;DHT22;61473;50.834;4.552;2022-07-06T05:02:04;22.80;48.20
73252;DHT22;61473;50.834;4.552;2022-07-06T05:04:30;22.80;48.20
73252;DHT22;61473;50.834;4.552;2022-07-06T05:06:55;22.80;48.30
73252;DHT22;61473;50.834;4.552;2022-07-06T05:09:21;22.80;48.40
73252;DHT22;61473;50.834;4.552;2022-07-06T05:11:47;22.80;48.40
73252;DHT22;61473;50.834;4.552;2022-07-06T05:14:13;22.80;49.20
73252;DHT22;61473;50.834;4.552;2022-07-06T05:16:38;22.80;48.50
73252;DHT22;61473;50.834;4.552;2022-07-06T05:19:04;22.80;48.50
73252;DHT22;61473;50.834;4.552;2022-07-06T05:21:30;22.80;48.50
73252;DHT22;61473;50.834;4.552;2022-07-06T05:23:56;22.80;48.70
73252;DHT22;61473;50.834;4.552;2022-07-06T05:26:21;22.90;48.80
73252;DHT22;61473;50.834;4.552;2022-07-06T05:28:47;22.80;48.80
73252;DHT22;61473;50.834;4.552;2022-07-06T05:31:13;22.90;48.90
73252;DHT22;61473;50.834;4.552;2022-07-06T05:33:38;22.90;49.00
73252;DHT22;61473;50.834;4.552;2022-07-06T05:36:04;22.90;49.00
73252;DHT22;61473;50.834;4.552;2022-07-06T05:38:30;22.90;49.10
73252;DHT22;61473;50.834;4.552;2022-07-06T05:40:56;22.90;49.20
73252;DHT22;61473;50.834;4.552;2022-07-06T05:43:21;22.90;49.30
73252;DHT22;61473;50.834;4.552;2022-07-06T05:45:47;22.90;49.30
73252;DHT22;61473;50.834;4.552;2022-07-06T05:48:13;22.90;49.40
73252;DHT22;61473;50.834;4.552;2022-07-06T05:50:57;22.90;49.40
73252;DHT22;61473;50.834;4.552;2022-07-06T05:53:23;22.90;49.50
73252;DHT22;61473;50.834;4.552;2022-07-06T05:55:49;22.90;49.40
73252;DHT22;61473;50.834;4.552;2022-07-06T05:58:15;22.90;49.50
73252;DHT22;61473;50.834;4.552;2022-07-06T06:00:41;23.00;49.60
73252;DHT22;61473;50.834;4.552;2022-07-06T06:03:06;23.00;49.50
73252;DHT22;61473;50.834;4.552;2022-07-06T06:05:32;23.00;49.50
73252;DHT22;61473;50.834;4.552;2022-07-06T06:07:58;23.00;49.60
73252;DHT22;61473;50.834;4.552;2022-07-06T06:10:24;23.00;49.70
73252;DHT22;61473;50.834;4.552;2022-07-06T06:12:50;23.00;49.70
73252;DHT22;61473;50.834;4.552;2022-07-06T06:15:16;23.00;49.80
73252;DHT22;61473;50.834;4.552;2022-07-06T06:17:42;23.00;49.80
73252;DHT22;61473;50.834;4.552;2022-07-06T06:20:10;23.00;50.00
73252;DHT22;61473;50.834;4.552;2022-07-06T06:22:50;23.10;50.10
73252;DHT22;61473;50.834;4.552;2022-07-06T06:25:18;23.10;50.20
73252;DHT22;61473;50.834;4.552;2022-07-06T06:27:44;23.10;50.30
73252;DHT22;61473;50.834;4.552;2022-07-06T06:30:11;23.10;50.30
73252;DHT22;61473;50.834;4.552;2022-07-06T06:32:37;23.10;50.40
73252;DHT22;61473;50.834;4.552;2022-07-06T06:35:03;23.10;50.50
73252;DHT22;61473;50.834;4.552;2022-07-06T06:37:29;23.10;50.60
73252;DHT22;61473;50.834;4.552;2022-07-06T06:39:55;23.20;50.70
73252;DHT22;61473;50.834;4.552;2022-07-06T06:42:21;23.20;50.70
73252;DHT22;61473;50.834;4.552;2022-07-06T06:44:46;23.20;50.70
73252;DHT22;61473;50.834;4.552;2022-07-06T06:47:12;23.20;50.40
73252;DHT22;61473;50.834;4.552;2022-07-06T06:49:38;23.30;50.40
73252;DHT22;61473;50.834;4.552;2022-07-06T06:52:04;23.30;50.40
73252;DHT22;61473;50.834;4.552;2022-07-06T06:54:29;23.30;50.30
73252;DHT22;61473;50.834;4.552;2022-07-06T06:56:55;23.30;50.30
73252;DHT22;61473;50.834;4.552;2022-07-06T06:59:21;23.30;50.20
73252;DHT22;61473;50.834;4.552;2022-07-06T07:01:47;23.40;50.20
73252;DHT22;61473;50.834;4.552;2022-07-06T07:04:13;23.40;50.10
73252;DHT22;61473;50.834;4.552;2022-07-06T07:06:39;23.40;50.00
73252;DHT22;61473;50.834;4.552;2022-07-06T07:09:05;23.40;49.90
73252;DHT22;61473;50.834;4.552;2022-07-06T07:11:31;23.40;49.90
73252;DHT22;61473;50.834;4.552;2022-07-06T07:13:57;23.40;49.80
73252;DHT22;61473;50.834;4.552;2022-07-06T07:16:22;23.40;49.70
73252;DHT22;61473;50.834;4.552;2022-07-06T07:18:50;23.40;49.60
73252;DHT22;61473;50.834;4.552;2022-07-06T07:21:15;23.40;49.60
73252;DHT22;61473;50.834;4.552;2022-07-06T07:23:41;23.40;49.10
73252;DHT22;61473;50.834;4.552;2022-07-06T07:26:07;23.50;49.30
73252;DHT22;61473;50.834;4.552;2022-07-06T07:28:33;23.50;48.90
73252;DHT22;61473;50.834;4.552;2022-07-06T07:30:59;23.50;48.70
73252;DHT22;61473;50.834;4.552;2022-07-06T07:33:25;23.50;48.40
73252;DHT22;61473;50.834;4.552;2022-07-06T07:35:50;23.50;48.30
73252;DHT22;61473;50.834;4.552;2022-07-06T07:38:16;23.50;48.30
73252;DHT22;61473;50.834;4.552;2022-07-06T07:40:41;23.50;47.60
73252;DHT22;61473;50.834;4.552;2022-07-06T07:43:07;23.50;47.00
73252;DHT22;61473;50.834;4.552;2022-07-06T07:45:33;23.60;47.70
73252;DHT22;61473;50.834;4.552;2022-07-06T07:47:58;23.60;47.60
73252;DHT22;61473;50.834;4.552;2022-07-06T07:50:24;23.60;46.80
73252;DHT22;61473;50.834;4.552;2022-07-06T07:52:52;23.60;46.80
73252;DHT22;61473;50.834;4.552;2022-07-06T07:55:18;23.60;46.90
73252;DHT22;61473;50.834;4.552;2022-07-06T07:57:43;23.60;46.90
73252;DHT22;61473;50.834;4.552;2022-07-06T08:00:10;23.60;46.50
73252;DHT22;61473;50.834;4.552;2022-07-06T08:02:36;23.70;46.60
73252;DHT22;61473;50.834;4.552;2022-07-06T08:05:02;23.60;46.60
73252;DHT22;61473;50.834;4.552;2022-07-06T08:07:28;23.60;46.60
73252;DHT22;61473;50.834;4.552;2022-07-06T08:09:53;23.70;46.90
73252;DHT22;61473;50.834;4.552;2022-07-06T08:12:19;23.70;46.00
73252;DHT22;61473;50.834;4.552;2022-07-06T08:14:44;23.70;46.70
73252;DHT22;61473;50.834;4.552;2022-07-06T08:17:10;23.70;46.20
73252;DHT22;61473;50.834;4.552;2022-07-06T08:19:36;23.70;46.30
73252;DHT22;61473;50.834;4.552;2022-07-06T08:22:02;23.70;46.20
73252;DHT22;61473;50.834;4.552;2022-07-06T08:24:36;23.70;45.90
73252;DHT22;61473;50.834;4.552;2022-07-06T08:27:02;23.70;46.00
73252;DHT22;61473;50.834;4.552;2022-07-06T08:29:29;23.80;46.20
73252;DHT22;61473;50.834;4.552;2022-07-06T08:31:55;23.80;46.10
73252;DHT22;61473;50.834;4.552;2022-07-06T08:34:21;23.80;46.10
73252;DHT22;61473;50.834;4.552;2022-07-06T08:36:47;23.80;46.00
73252;DHT22;61473;50.834;4.552;2022-07-06T08:39:12;23.80;46.10
73252;DHT22;61473;50.834;4.552;2022-07-06T08:41:41;23.80;46.00
73252;DHT22;61473;50.834;4.552;2022-07-06T08:44:08;23.80;46.10
73252;DHT22;61473;50.834;4.552;2022-07-06T08:46:37;23.90;46.20
73252;DHT22;61473;50.834;4.552;2022-07-06T08:49:03;23.90;46.10
73252;DHT22;61473;50.834;4.552;2022-07-06T08:51:30;23.90;46.20
73252;DHT22;61473;50.834;4.552;2022-07-06T08:53:56;23.90;46.50
73252;DHT22;61473;50.834;4.552;2022-07-06T08:56:22;23.90;46.30
73252;DHT22;61473;50.834;4.552;2022-07-06T08:58:48;23.90;46.50
73252;DHT22;61473;50.834;4.552;2022-07-06T09:01:16;23.90;46.40
73252;DHT22;61473;50.834;4.552;2022-07-06T09:03:43;23.90;46.40
73252;DHT22;61473;50.834;4.552;2022-07-06T09:06:12;24.00;46.40
73252;DHT22;61473;50.834;4.552;2022-07-06T09:08:41;24.00;46.30
73252;DHT22;61473;50.834;4.552;2022-07-06T09:11:07;24.00;45.90
73252;DHT22;61473;50.834;4.552;2022-07-06T09:13:33;24.00;45.40
73252;DHT22;61473;50.834;4.552;2022-07-06T09:16:13;24.00;45.50
73252;DHT22;61473;50.834;4.552;2022-07-06T09:18:40;24.00;45.80
73252;DHT22;61473;50.834;4.552;2022-07-06T09:21:08;24.00;46.10
73252;DHT22;61473;50.834;4.552;2022-07-06T09:23:36;24.00;46.40
73252;DHT22;61473;50.834;4.552;2022-07-06T09:26:11;24.00;46.30
73252;DHT22;61473;50.834;4.552;2022-07-06T09:28:45;24.00;46.30
73252;DHT22;61473;50.834;4.552;2022-07-06T09:31:12;24.10;46.20
73252;DHT22;61473;50.834;4.552;2022-07-06T09:33:38;24.10;45.90
73252;DHT22;61473;50.834;4.552;2022-07-06T09:36:04;24.10;46.40
73252;DHT22;61473;50.834;4.552;2022-07-06T09:38:31;24.10;45.90
73252;DHT22;61473;50.834;4.552;2022-07-06T09:40:57;24.10;45.30
73252;DHT22;61473;50.834;4.552;2022-07-06T09:43:24;24.10;45.30
73252;DHT22;61473;50.834;4.552;2022-07-06T09:45:52;24.10;45.60
73252;DHT22;61473;50.834;4.552;2022-07-06T09:48:21;24.20;45.70
73252;DHT22;61473;50.834;4.552;2022-07-06T09:53:16;24.20;45.80
73252;DHT22;61473;50.834;4.552;2022-07-06T09:55:47;24.20;45.80
73252;DHT22;61473;50.834;4.552;2022-07-06T09:58:14;24.20;45.60
73252;DHT22;61473;50.834;4.552;2022-07-06T10:00:41;24.20;45.80
73252;DHT22;61473;50.834;4.552;2022-07-06T10:03:07;24.20;45.70
73252;DHT22;61473;50.834;4.552;2022-07-06T10:05:37;24.20;45.80
73252;DHT22;61473;50.834;4.552;2022-07-06T10:08:03;24.20;45.80
73252;DHT22;61473;50.834;4.552;2022-07-06T10:10:32;24.20;46.00
73252;DHT22;61473;50.834;4.552;2022-07-06T10:12:59;24.20;46.20
73252;DHT22;61473;50.834;4.552;2022-07-06T10:15:26;24.20;46.20
73252;DHT22;61473;50.834;4.552;2022-07-06T10:17:53;24.20;46.20
73252;DHT22;61473;50.834;4.552;2022-07-06T10:20:19;24.30;45.90
73252;DHT22;61473;50.834;4.552;2022-07-06T10:22:49;24.30;46.10
73252;DHT22;61473;50.834;4.552;2022-07-06T10:25:18;24.30;45.60
73252;DHT22;61473;50.834;4.552;2022-07-06T10:27:48;24.30;45.70
73252;DHT22;61473;50.834;4.552;2022-07-06T10:30:16;24.30;46.10
73252;DHT22;61473;50.834;4.552;2022-07-06T10:32:45;24.30;46.00
73252;DHT22;61473;50.834;4.552;2022-07-06T10:35:12;24.30;46.00
73252;DHT22;61473;50.834;4.552;2022-07-06T10:37:38;24.30;45.80
73252;DHT22;61473;50.834;4.552;2022-07-06T10:40:05;24.40;45.90
73252;DHT22;61473;50.834;4.552;2022-07-06T10:53:16;24.40;46.60
73252;DHT22;61473;50.834;4.552;2022-07-06T10:55:47;24.40;46.00
73252;DHT22;61473;50.834;4.552;2022-07-06T10:58:15;24.40;46.00
73252;DHT22;61473;50.834;4.552;2022-07-06T11:00:55;24.40;46.10
73252;DHT22;61473;50.834;4.552;2022-07-06T11:06:09;24.40;46.30
73252;DHT22;61473;50.834;4.552;2022-07-06T11:13:59;24.50;46.10
73252;DHT22;61473;50.834;4.552;2022-07-06T11:16:33;24.50;46.20
73252;DHT22;61473;50.834;4.552;2022-07-06T11:19:10;24.50;46.40
73252;DHT22;61473;50.834;4.552;2022-07-06T11:24:03;24.50;46.10
73252;DHT22;61473;50.834;4.552;2022-07-06T11:26:30;24.60;45.90
73252;DHT22;61473;50.834;4.552;2022-07-06T11:28:58;24.60;45.70
73252;DHT22;61473;50.834;4.552;2022-07-06T11:31:24;24.60;45.70
73252;DHT22;61473;50.834;4.552;2022-07-06T11:33:50;24.60;45.80
73252;DHT22;61473;50.834;4.552;2022-07-06T11:38:42;24.60;45.90
73252;DHT22;61473;50.834;4.552;2022-07-06T11:41:08;24.70;45.90
73252;DHT22;61473;50.834;4.552;2022-07-06T11:43:34;24.70;45.50
73252;DHT22;61473;50.834;4.552;2022-07-06T11:46:00;24.60;45.80
73252;DHT22;61473;50.834;4.552;2022-07-06T11:48:25;24.60;45.80
73252;DHT22;61473;50.834;4.552;2022-07-06T11:51:01;24.60;45.70
73252;DHT22;61473;50.834;4.552;2022-07-06T11:53:27;24.60;45.70
73252;DHT22;61473;50.834;4.552;2022-07-06T11:55:54;24.70;46.50
73252;DHT22;61473;50.834;4.552;2022-07-06T11:58:23;24.70;45.50
73252;DHT22;61473;50.834;4.552;2022-07-06T12:01:08;24.70;45.90
73252;DHT22;61473;50.834;4.552;2022-07-06T12:03:35;24.70;46.00
73252;DHT22;61473;50.834;4.552;2022-07-06T12:06:05;24.70;45.80
73252;DHT22;61473;50.834;4.552;2022-07-06T12:08:32;24.70;45.70
73252;DHT22;61473;50.834;4.552;2022-07-06T12:10:59;24.70;46.00
73252;DHT22;61473;50.834;4.552;2022-07-06T12:13:25;24.70;46.00
73252;DHT22;61473;50.834;4.552;2022-07-06T12:15:51;24.80;46.30
73252;DHT22;61473;50.834;4.552;2022-07-06T12:18:17;24.80;46.10
73252;DHT22;61473;50.834;4.552;2022-07-06T12:20:42;24.80;46.10
73252;DHT22;61473;50.834;4.552;2022-07-06T12:23:08;24.80;45.80
73252;DHT22;61473;50.834;4.552;2022-07-06T12:25:36;24.80;46.70
73252;DHT22;61473;50.834;4.552;2022-07-06T12:28:03;24.70;46.00
73252;DHT22;61473;50.834;4.552;2022-07-06T12:30:29;24.70;46.00
73252;DHT22;61473;50.834;4.552;2022-07-06T12:33:13;24.70;46.10
73252;DHT22;61473;50.834;4.552;2022-07-06T12:35:49;24.70;46.10
73252;DHT22;61473;50.834;4.552;2022-07-06T12:38:24;24.70;46.20
73252;DHT22;61473;50.834;4.552;2022-07-06T12:40:50;24.80;46.10
73252;DHT22;61473;50.834;4.552;2022-07-06T12:43:36;24.80;45.60
73252;DHT22;61473;50.834;4.552;2022-07-06T12:46:31;24.80;45.60
73252;DHT22;61473;50.834;4.552;2022-07-06T12:48:58;24.80;45.80
73252;DHT22;61473;50.834;4.552;2022-07-06T12:51:24;24.90;46.30
73252;DHT22;61473;50.834;4.552;2022-07-06T12:53:50;24.90;47.20
73252;DHT22;61473;50.834;4.552;2022-07-06T12:56:16;24.90;47.90
73252;DHT22;61473;50.834;4.552;2022-07-06T12:59:01;25.00;48.20
73252;DHT22;61473;50.834;4.552;2022-07-06T13:01:27;25.00;48.10
73252;DHT22;61473;50.834;4.552;2022-07-06T13:03:56;25.00;48.20
73252;DHT22;61473;50.834;4.552;2022-07-06T13:06:35;25.00;48.10
73252;DHT22;61473;50.834;4.552;2022-07-06T13:09:02;25.00;48.60
73252;DHT22;61473;50.834;4.552;2022-07-06T13:11:28;25.00;48.00
73252;DHT22;61473;50.834;4.552;2022-07-06T13:13:54;25.00;48.60
73252;DHT22;61473;50.834;4.552;2022-07-06T13:16:19;25.00;48.70
73252;DHT22;61473;50.834;4.552;2022-07-06T13:18:47;25.00;47.30
73252;DHT22;61473;50.834;4.552;2022-07-06T13:21:13;25.00;47.60
73252;DHT22;61473;50.834;4.552;2022-07-06T13:23:39;25.00;47.60
73252;DHT22;61473;50.834;4.552;2022-07-06T13:26:05;25.00;47.30
73252;DHT22;61473;50.834;4.552;2022-07-06T13:28:31;25.00;47.00
73252;DHT22;61473;50.834;4.552;2022-07-06T13:30:56;25.00;46.80
73252;DHT22;61473;50.834;4.552;2022-07-06T13:33:22;25.00;47.90
73252;DHT22;61473;50.834;4.552;2022-07-06T13:35:47;25.00;48.10
73252;DHT22;61473;50.834;4.552;2022-07-06T13:38:13;25.10;47.30
73252;DHT22;61473;50.834;4.552;2022-07-06T13:40:39;25.10;47.90
73252;DHT22;61473;50.834;4.552;2022-07-06T13:43:04;25.10;49.10
73252;DHT22;61473;50.834;4.552;2022-07-06T13:45:30;25.10;49.10
73252;DHT22;61473;50.834;4.552;2022-07-06T13:47:56;25.20;48.90
73252;DHT22;61473;50.834;4.552;2022-07-06T13:50:21;25.20;50.10
73252;DHT22;61473;50.834;4.552;2022-07-06T13:52:47;25.20;49.30
73252;DHT22;61473;50.834;4.552;2022-07-06T13:55:13;25.30;48.70
73252;DHT22;61473;50.834;4.552;2022-07-06T13:57:39;25.30;50.50
73252;DHT22;61473;50.834;4.552;2022-07-06T14:00:07;25.30;53.70
73252;DHT22;61473;50.834;4.552;2022-07-06T14:02:33;25.30;51.50
73252;DHT22;61473;50.834;4.552;2022-07-06T14:04:59;25.20;49.70
73252;DHT22;61473;50.834;4.552;2022-07-06T14:07:25;25.20;50.30
73252;DHT22;61473;50.834;4.552;2022-07-06T14:09:50;25.20;50.40
73252;DHT22;61473;50.834;4.552;2022-07-06T14:12:17;25.20;51.00
73252;DHT22;61473;50.834;4.552;2022-07-06T14:14:44;25.30;50.00
73252;DHT22;61473;50.834;4.552;2022-07-06T14:17:10;25.30;48.70
73252;DHT22;61473;50.834;4.552;2022-07-06T14:19:35;25.20;48.40
73252;DHT22;61473;50.834;4.552;2022-07-06T14:22:01;25.20;48.50
73252;DHT22;61473;50.834;4.552;2022-07-06T14:24:27;25.20;48.50
73252;DHT22;61473;50.834;4.552;2022-07-06T14:26:52;25.20;48.50
73252;DHT22;61473;50.834;4.552;2022-07-06T14:29:18;25.20;48.60
73252;DHT22;61473;50.834;4.552;2022-07-06T14:31:43;25.20;48.40
73252;DHT22;61473;50.834;4.552;2022-07-06T14:34:09;25.20;47.70
73252;DHT22;61473;50.834;4.552;2022-07-06T14:36:35;25.20;47.30
73252;DHT22;61473;50.834;4.552;2022-07-06T14:39:03;25.20;47.00
73252;DHT22;61473;50.834;4.552;2022-07-06T14:41:29;25.20;47.20
73252;DHT22;61473;50.834;4.552;2022-07-06T14:43:55;25.20;47.40
73252;DHT22;61473;50.834;4.552;2022-07-06T14:46:21;25.20;47.80
73252;DHT22;61473;50.834;4.552;2022-07-06T14:48:47;25.20;47.80
73252;DHT22;61473;50.834;4.552;2022-07-06T14:51:13;25.20;47.90
73252;DHT22;61473;50.834;4.552;2022-07-06T14:53:39;25.20;47.60
73252;DHT22;61473;50.834;4.552;2022-07-06T14:56:05;25.20;47.70
73252;DHT22;61473;50.834;4.552;2022-07-06T14:58:31;25.20;47.40
73252;DHT22;61473;50.834;4.552;2022-07-06T15:00:56;25.20;47.50
73252;DHT22;61473;50.834;4.552;2022-07-06T15:03:22;25.20;47.40
73252;DHT22;61473;50.834;4.552;2022-07-06T15:05:48;25.20;47.10
73252;DHT22;61473;50.834;4.552;2022-07-06T15:08:14;25.20;46.90
73252;DHT22;61473;50.834;4.552;2022-07-06T15:10:41;25.20;46.90
73252;DHT22;61473;50.834;4.552;2022-07-06T15:13:07;25.20;47.20
73252;DHT22;61473;50.834;4.552;2022-07-06T15:15:33;25.10;47.10
73252;DHT22;61473;50.834;4.552;2022-07-06T15:17:59;25.10;46.80
73252;DHT22;61473;50.834;4.552;2022-07-06T15:20:24;25.10;46.50
73252;DHT22;61473;50.834;4.552;2022-07-06T15:22:50;25.10;46.50
73252;DHT22;61473;50.834;4.552;2022-07-06T15:25:16;25.10;46.80
73252;DHT22;61473;50.834;4.552;2022-07-06T15:27:42;25.10;47.10
73252;DHT22;61473;50.834;4.552;2022-07-06T15:30:08;25.20;47.30
73252;DHT22;61473;50.834;4.552;2022-07-06T15:32:33;25.20;47.30
73252;DHT22;61473;50.834;4.552;2022-07-06T15:34:59;25.20;47.00
73252;DHT22;61473;50.834;4.552;2022-07-06T15:37:25;25.10;47.10
73252;DHT22;61473;50.834;4.552;2022-07-06T15:39:50;25.20;47.00
73252;DHT22;61473;50.834;4.552;2022-07-06T15:42:16;25.10;47.20
73252;DHT22;61473;50.834;4.552;2022-07-06T15:44:41;25.10;47.10
73252;DHT22;61473;50.834;4.552;2022-07-06T15:47:07;25.10;47.20
73252;DHT22;61473;50.834;4.552;2022-07-06T15:49:33;25.10;47.20
73252;DHT22;61473;50.834;4.552;2022-07-06T15:51:59;25.10;47.10
73252;DHT22;61473;50.834;4.552;2022-07-06T15:54:25;25.10;46.90